createdAt,value
2023-02-15T00:01:13.378Z,68.33
2023-02-15T00:03:37.293Z,59.60
2023-02-15T00:06:01.151Z,64.03
2023-02-15T00:08:26.008Z,56.97
2023-02-15T00:10:49.866Z,61.50
2023-02-15T00:13:14.895Z,67.13
2023-02-15T00:15:38.614Z,66.03
2023-02-15T00:18:02.242Z,66.33
2023-02-15T00:20:25.921Z,72.03
2023-02-15T00:22:49.531Z,69.67
2023-02-15T00:25:13.165Z,66.07
2023-02-15T00:27:36.777Z,62.67
2023-02-15T00:30:02.130Z,70.67
2023-02-15T00:32:27.034Z,66.77
2023-02-15T00:34:50.729Z,69.43
2023-02-15T00:37:14.364Z,64.50
2023-02-15T00:39:38.070Z,65.70
2023-02-15T00:42:03.134Z,59.20
2023-02-15T00:44:26.925Z,76.60
2023-02-15T00:46:55.140Z,72.23
2023-02-15T00:49:18.934Z,66.97
2023-02-15T00:51:42.711Z,66.17
2023-02-15T00:54:06.527Z,73.30
2023-02-15T00:56:30.481Z,78.87
2023-02-15T00:58:54.219Z,69.43
2023-02-15T01:01:20.838Z,67.37
2023-02-15T01:03:47.606Z,69.20
2023-02-15T01:06:11.974Z,77.50
2023-02-15T01:08:36.099Z,69.57
2023-02-15T01:11:05.684Z,66.87
2023-02-15T01:13:29.434Z,72.97
2023-02-15T01:15:56.825Z,76.70
2023-02-15T01:18:20.873Z,69.80
2023-02-15T01:20:48.550Z,66.70
2023-02-15T01:23:12.348Z,68.37
2023-02-15T01:25:37.863Z,67.67
2023-02-15T01:28:01.578Z,68.27
2023-02-15T01:30:25.324Z,71.30
2023-02-15T01:32:49.064Z,66.07
2023-02-15T01:35:13.782Z,59.90
2023-02-15T01:37:39.159Z,63.13
2023-02-15T01:40:03.303Z,70.90
2023-02-15T01:42:27.734Z,86.17
2023-02-15T01:44:57.133Z,77.50
2023-02-15T01:49:57.192Z,78.43
2023-02-15T01:52:21.621Z,73.53
2023-02-15T01:54:50.405Z,81.20
2023-02-15T01:57:19.131Z,81.37
2023-02-15T01:59:48.836Z,76.70
2023-02-15T02:02:16.035Z,72.07
2023-02-15T02:04:47.581Z,75.33
2023-02-15T02:07:15.468Z,82.67
2023-02-15T02:09:39.561Z,69.50
2023-02-15T02:12:05.159Z,66.40
2023-02-15T02:14:29.178Z,79.13
2023-02-15T02:17:00.969Z,72.47
2023-02-15T02:20:05.585Z,70.47
2023-02-15T02:23:21.896Z,76.33
2023-02-15T02:26:43.745Z,82.43
2023-02-15T02:29:52.070Z,73.47
2023-02-15T02:33:00.039Z,71.80
2023-02-15T02:35:31.142Z,75.80
2023-02-15T02:38:06.649Z,79.20
2023-02-15T02:40:45.750Z,86.87
2023-02-15T02:43:20.656Z,73.10
2023-02-15T02:45:50.048Z,81.90
2023-02-15T02:48:21.313Z,89.93
2023-02-15T02:50:46.424Z,93.23
2023-02-15T02:53:12.008Z,93.63
2023-02-15T02:55:42.818Z,84.97
2023-02-15T02:58:12.178Z,92.23
2023-02-15T03:00:42.856Z,97.63
2023-02-15T03:03:11.517Z,92.23
2023-02-15T03:05:41.736Z,78.77
2023-02-15T03:08:10.987Z,96.70
2023-02-15T03:10:36.946Z,95.67
2023-02-15T03:13:02.394Z,88.20
2023-02-15T03:15:49.660Z,95.57
2023-02-15T03:18:13.530Z,96.50
2023-02-15T03:20:40.372Z,88.27
2023-02-15T03:23:08.858Z,93.30
2023-02-15T03:25:37.327Z,102.37
2023-02-15T03:28:05.953Z,92.03
2023-02-15T03:30:31.091Z,117.33
2023-02-15T03:32:55.981Z,101.63
2023-02-15T03:35:21.653Z,103.33
2023-02-15T03:37:52.816Z,109.10
2023-02-15T03:40:40.936Z,113.23
2023-02-15T03:43:13.564Z,100.80
2023-02-15T03:45:55.415Z,117.77
2023-02-15T03:48:19.886Z,102.17
2023-02-15T03:51:01.261Z,104.93
2023-02-15T03:53:27.990Z,108.20
2023-02-15T03:55:55.256Z,109.83
2023-02-15T03:58:36.341Z,104.33
2023-02-15T04:01:19.177Z,103.37
2023-02-15T04:03:47.305Z,109.00
2023-02-15T04:06:11.142Z,97.47
2023-02-15T04:08:53.970Z,108.03
2023-02-15T04:11:17.711Z,104.90
2023-02-15T04:13:41.782Z,96.20
2023-02-15T04:16:06.041Z,102.03
2023-02-15T04:18:49.750Z,102.07
2023-02-15T04:21:30.509Z,111.83
2023-02-15T04:24:12.760Z,124.83
2023-02-15T04:26:36.563Z,118.03
2023-02-15T04:29:00.248Z,105.67
2023-02-15T04:31:24.151Z,114.03
2023-02-15T04:33:48.866Z,116.50
2023-02-15T04:36:12.677Z,95.13
2023-02-15T04:38:36.538Z,125.50
2023-02-15T04:41:01.822Z,109.10
2023-02-15T04:43:25.551Z,111.20
2023-02-15T04:45:52.911Z,105.97
2023-02-15T04:48:16.689Z,115.03
2023-02-15T04:50:40.428Z,110.40
2023-02-15T04:53:04.193Z,119.27
2023-02-15T04:55:28.079Z,137.67
2023-02-15T04:57:53.240Z,124.83
2023-02-15T05:00:17.980Z,117.83
2023-02-15T05:02:41.689Z,129.17
2023-02-15T05:05:06.255Z,118.47
2023-02-15T05:07:29.906Z,122.40
2023-02-15T05:09:53.685Z,131.10
2023-02-15T05:12:17.530Z,135.07
2023-02-15T05:14:42.697Z,148.40
2023-02-15T05:17:06.374Z,136.60
2023-02-15T05:19:30.400Z,139.23
2023-02-15T05:21:54.021Z,150.10
2023-02-15T05:24:35.159Z,135.13
2023-02-15T05:27:16.251Z,145.77
2023-02-15T05:29:41.412Z,131.33
2023-02-15T05:32:05.412Z,129.90
2023-02-15T05:34:29.357Z,135.90
2023-02-15T05:36:53.025Z,141.80
2023-02-15T05:39:16.794Z,157.20
2023-02-15T05:41:40.471Z,153.13
2023-02-15T05:44:04.286Z,147.93
2023-02-15T05:46:29.490Z,150.83
2023-02-15T05:48:53.536Z,151.43
2023-02-15T05:51:18.007Z,176.73
2023-02-15T05:53:42.922Z,164.87
2023-02-15T05:56:08.556Z,163.53
2023-02-15T05:58:35.681Z,169.40
2023-02-15T06:00:59.696Z,157.27
2023-02-15T06:03:26.769Z,182.53
2023-02-15T06:05:50.669Z,161.97
2023-02-15T06:08:14.600Z,163.63
2023-02-15T06:10:38.695Z,142.87
2023-02-15T06:13:02.442Z,147.07
2023-02-15T06:15:26.155Z,138.97
2023-02-15T06:17:49.985Z,144.03
2023-02-15T06:20:15.786Z,141.23
2023-02-15T06:22:39.570Z,153.47
2023-02-15T06:25:03.489Z,151.03
2023-02-15T06:27:27.310Z,140.80
2023-02-15T06:29:51.018Z,144.90
2023-02-15T06:32:14.804Z,151.03
2023-02-15T06:34:38.456Z,145.93
2023-02-15T06:37:03.723Z,160.70
2023-02-15T06:39:27.497Z,152.33
2023-02-15T06:41:51.344Z,171.07
2023-02-15T06:44:15.084Z,163.50
2023-02-15T06:46:39.012Z,167.43
2023-02-15T06:49:02.772Z,159.30
2023-02-15T06:51:26.597Z,166.57
2023-02-15T06:53:51.745Z,162.47
2023-02-15T06:56:15.557Z,161.47
2023-02-15T06:58:39.939Z,153.20
2023-02-15T07:01:04.146Z,165.30
2023-02-15T07:03:27.785Z,184.67
2023-02-15T07:05:51.646Z,211.93
2023-02-15T07:08:15.401Z,219.87
2023-02-15T07:10:40.593Z,205.10
2023-02-15T07:13:03.295Z,250.67
2023-02-15T07:15:27.094Z,248.83
2023-02-15T07:17:51.204Z,310.40
2023-02-15T07:20:18.223Z,307.77
2023-02-15T07:22:41.990Z,289.90
2023-02-15T07:25:06.274Z,371.20
2023-02-15T07:27:31.709Z,353.80
2023-02-15T07:29:55.462Z,371.00
2023-02-15T07:32:19.150Z,430.30
2023-02-15T07:34:43.438Z,376.43
2023-02-15T07:37:07.179Z,545.67
2023-02-15T07:39:30.904Z,503.50
2023-02-15T07:41:54.626Z,477.43
2023-02-15T07:44:19.941Z,584.27
2023-02-15T07:46:43.591Z,561.80
2023-02-15T07:49:07.243Z,466.30
2023-02-15T07:51:30.929Z,377.53
2023-02-15T07:53:54.579Z,497.20
2023-02-15T07:56:18.214Z,479.30
2023-02-15T07:58:54.942Z,544.20
2023-02-15T08:01:21.668Z,547.07
2023-02-15T08:03:45.537Z,673.03
2023-02-15T08:06:10.770Z,615.37
2023-02-15T08:08:36.707Z,803.37
2023-02-15T08:11:19.720Z,533.43
2023-02-15T08:13:54.679Z,528.77
2023-02-15T08:16:19.876Z,401.27
2023-02-15T08:18:43.507Z,438.90
2023-02-15T08:21:07.395Z,407.57
2023-02-15T08:23:31.142Z,427.43
2023-02-15T08:25:54.811Z,298.20
2023-02-15T08:28:18.456Z,348.67
2023-02-15T08:30:42.193Z,304.23
2023-02-15T08:33:07.295Z,235.37
2023-02-15T08:35:30.962Z,208.40
2023-02-15T08:37:54.591Z,254.90
2023-02-15T08:40:18.344Z,225.77
2023-02-15T08:42:41.944Z,291.90
2023-02-15T08:45:06.429Z,227.70
2023-02-15T08:47:30.244Z,199.27
2023-02-15T08:49:56.897Z,281.97
2023-02-15T08:52:21.029Z,238.60
2023-02-15T08:54:44.818Z,282.83
2023-02-15T08:57:09.139Z,227.60
2023-02-15T08:59:32.901Z,222.27
2023-02-15T09:01:57.335Z,285.50
2023-02-15T09:04:21.534Z,346.40
2023-02-15T09:06:49.008Z,282.90
2023-02-15T09:09:13.716Z,204.87
2023-02-15T09:11:40.212Z,222.60
2023-02-15T09:14:06.575Z,178.63
2023-02-15T09:16:33.362Z,219.17
2023-02-15T09:18:59.018Z,167.47
2023-02-15T09:21:25.535Z,174.10
2023-02-15T09:23:53.048Z,130.97
2023-02-15T09:26:18.935Z,101.53
2023-02-15T09:28:43.143Z,135.30
2023-02-15T09:31:12.649Z,128.90
2023-02-15T09:33:37.130Z,143.20
2023-02-15T09:36:00.764Z,128.60
2023-02-15T09:38:24.416Z,130.57
2023-02-15T09:41:04.096Z,132.30
2023-02-15T09:43:41.547Z,117.60
2023-02-15T09:46:31.810Z,107.37
2023-02-15T09:48:59.258Z,113.23
2023-02-15T09:51:47.616Z,115.17
2023-02-15T09:54:25.399Z,105.97
2023-02-15T09:56:58.356Z,112.03
2023-02-15T09:59:33.125Z,107.33
2023-02-15T10:02:17.273Z,113.17
2023-02-15T10:04:57.316Z,106.93
2023-02-15T10:07:40.407Z,104.87
2023-02-15T10:10:16.552Z,101.40
2023-02-15T10:13:00.036Z,100.90
2023-02-15T10:15:42.425Z,103.93
2023-02-15T10:18:31.344Z,90.87
2023-02-15T10:21:05.026Z,88.60
2023-02-15T10:24:02.906Z,91.80
2023-02-15T10:26:33.766Z,81.70
2023-02-15T10:29:07.073Z,88.13
2023-02-15T10:31:40.335Z,84.70
2023-02-15T10:34:20.065Z,70.33
2023-02-15T10:37:11.727Z,71.10
2023-02-15T10:39:48.750Z,70.28
2023-02-15T10:42:25.469Z,71.63
2023-02-15T10:45:05.431Z,65.72
2023-02-15T10:48:01.223Z,64.82
2023-02-15T10:50:43.239Z,61.03
2023-02-15T10:53:39.896Z,64.10
2023-02-15T10:56:14.770Z,64.60
2023-02-15T10:58:59.542Z,60.55
2023-02-15T11:01:33.967Z,63.15
2023-02-15T11:04:43.096Z,57.22
2023-02-15T11:07:17.937Z,55.55
2023-02-15T11:09:47.492Z,55.55
2023-02-15T11:12:16.883Z,61.20
2023-02-15T11:14:46.049Z,62.38
2023-02-15T11:17:16.619Z,56.17
2023-02-15T11:19:45.266Z,50.10
2023-02-15T11:22:12.310Z,54.22
2023-02-15T11:24:45.737Z,57.50
2023-02-15T11:27:22.806Z,51.85
2023-02-15T11:30:01.779Z,53.08
2023-02-15T11:32:32.591Z,52.50
2023-02-15T11:35:02.141Z,53.42
2023-02-15T11:37:32.359Z,52.55
2023-02-15T11:39:56.356Z,50.08
2023-02-15T11:42:24.488Z,48.40
2023-02-15T11:44:58.823Z,50.58
2023-02-15T11:47:22.559Z,49.22
2023-02-15T11:49:48.478Z,45.40
2023-02-15T11:52:17.319Z,41.92
2023-02-15T11:54:45.810Z,41.40
2023-02-15T11:57:19.183Z,39.47
2023-02-15T11:59:49.257Z,40.15
2023-02-15T12:02:19.879Z,38.55
2023-02-15T12:04:51.236Z,39.15
2023-02-15T12:07:23.685Z,39.50
2023-02-15T12:09:56.229Z,36.33
2023-02-15T12:12:25.203Z,39.38
2023-02-15T12:14:52.065Z,40.00
2023-02-15T12:17:16.331Z,40.08
2023-02-15T12:19:42.731Z,40.15
2023-02-15T12:22:10.796Z,42.47
2023-02-15T12:24:38.964Z,43.10
2023-02-15T12:27:06.487Z,45.13
2023-02-15T12:29:35.367Z,38.67
2023-02-15T12:32:00.425Z,38.35
2023-02-15T12:34:28.047Z,39.63
2023-02-15T12:36:58.866Z,39.35
2023-02-15T12:39:28.603Z,43.13
2023-02-15T12:42:04.490Z,41.42
2023-02-15T12:44:30.653Z,40.15
2023-02-15T12:47:04.746Z,41.00
2023-02-15T12:49:30.008Z,43.60
2023-02-15T12:51:56.069Z,39.05
2023-02-15T12:54:35.524Z,42.72
2023-02-15T12:56:59.691Z,38.90
2023-02-15T12:59:23.687Z,42.83
2023-02-15T13:01:47.481Z,41.97
2023-02-15T13:04:24.473Z,41.28
2023-02-15T13:06:53.108Z,40.92
2023-02-15T13:09:21.762Z,42.72
2023-02-15T13:11:49.043Z,38.63
2023-02-15T13:14:21.978Z,37.25
2023-02-15T13:16:48.588Z,40.20
2023-02-15T13:19:17.454Z,41.83
2023-02-15T13:21:46.243Z,42.20
2023-02-15T13:24:21.408Z,36.45
2023-02-15T13:26:48.300Z,32.95
2023-02-15T13:29:22.347Z,31.35
2023-02-15T13:31:46.847Z,34.38
2023-02-15T13:34:16.253Z,33.50
2023-02-15T13:36:51.863Z,35.60
2023-02-15T13:39:29.006Z,36.65
2023-02-15T13:42:03.272Z,36.55
2023-02-15T13:44:49.850Z,34.33
2023-02-15T13:47:24.045Z,36.67
2023-02-15T13:50:10.881Z,39.45
2023-02-15T13:52:44.201Z,39.13
2023-02-15T13:55:32.543Z,38.72
2023-02-15T13:58:29.159Z,43.40
2023-02-15T14:01:09.566Z,38.60
2023-02-15T14:04:20.071Z,37.80
2023-02-15T14:07:08.606Z,36.40
2023-02-15T14:09:48.647Z,37.60
2023-02-15T14:12:48.116Z,44.28
2023-02-15T14:15:26.934Z,37.70
2023-02-15T14:18:05.573Z,37.80
2023-02-15T14:20:42.077Z,37.33
2023-02-15T14:23:15.201Z,38.22
2023-02-15T14:25:45.660Z,44.30
2023-02-15T14:28:17.615Z,38.97
2023-02-15T14:30:47.563Z,36.13
2023-02-15T14:33:36.013Z,40.72
2023-02-15T14:36:01.822Z,35.05
2023-02-15T14:38:41.503Z,39.13
2023-02-15T14:41:08.834Z,41.95
2023-02-15T14:43:47.097Z,37.47
2023-02-15T14:46:24.188Z,40.42
2023-02-15T14:48:51.032Z,41.55
2023-02-15T14:52:02.334Z,41.13
2023-02-15T14:54:59.209Z,41.35
2023-02-15T14:57:35.406Z,42.20
2023-02-15T15:00:02.270Z,40.47
2023-02-15T15:02:32.496Z,40.35
2023-02-15T15:05:05.336Z,39.72
2023-02-15T15:07:31.206Z,39.40
2023-02-15T15:10:11.002Z,43.13
2023-02-15T15:12:42.563Z,39.60
2023-02-15T15:15:07.703Z,41.65
2023-02-15T15:18:04.661Z,41.17
2023-02-15T15:20:51.267Z,41.95
2023-02-15T15:23:46.846Z,38.50
2023-02-15T15:26:49.512Z,36.75
2023-02-15T15:29:14.211Z,42.03
2023-02-15T15:31:47.034Z,44.50
2023-02-15T15:35:03.055Z,36.63
2023-02-15T15:38:13.559Z,42.33
2023-02-15T15:41:20.039Z,40.03
2023-02-15T15:44:22.672Z,35.70
2023-02-15T15:47:03.458Z,42.35
2023-02-15T15:49:33.761Z,38.60
2023-02-15T15:51:57.511Z,46.60
2023-02-15T15:54:24.214Z,36.33
2023-02-15T15:56:51.512Z,40.13
2023-02-15T15:59:22.204Z,37.92
2023-02-15T16:01:47.829Z,39.13
2023-02-15T16:04:16.417Z,39.42
2023-02-15T16:06:43.104Z,37.92
2023-02-15T16:09:20.322Z,38.35
2023-02-15T16:11:44.807Z,39.75
2023-02-15T16:14:18.871Z,41.08
2023-02-15T16:16:43.312Z,39.65
2023-02-15T16:19:07.348Z,40.65
2023-02-15T16:21:35.583Z,42.83
2023-02-15T16:24:25.039Z,39.97
2023-02-15T16:27:20.478Z,43.10
2023-02-15T16:29:44.233Z,50.40
2023-02-15T16:32:19.487Z,40.72
2023-02-15T16:34:57.792Z,39.97
2023-02-15T16:37:25.740Z,45.20
2023-02-15T16:39:50.969Z,41.78
2023-02-15T16:42:18.251Z,38.35
2023-02-15T16:44:42.883Z,42.03
2023-02-15T16:47:06.872Z,44.78
2023-02-15T16:49:32.180Z,43.33
2023-02-15T16:52:01.084Z,37.42
2023-02-15T16:54:27.224Z,42.65
2023-02-15T16:56:54.764Z,47.05
2023-02-15T16:59:43.310Z,38.42
2023-02-15T17:02:31.980Z,42.45
2023-02-15T17:05:18.745Z,39.67
2023-02-15T17:07:43.889Z,37.05
2023-02-15T17:10:31.243Z,40.58
2023-02-15T17:12:59.470Z,40.00
2023-02-15T17:15:33.180Z,45.93
2023-02-15T17:18:01.089Z,38.23
2023-02-15T17:20:27.265Z,40.50
2023-02-15T17:22:51.901Z,40.53
2023-02-15T17:25:25.957Z,40.63
2023-02-15T17:27:55.881Z,38.70
2023-02-15T17:30:32.039Z,44.93
2023-02-15T17:32:58.805Z,44.40
2023-02-15T17:35:25.786Z,38.17
2023-02-15T17:37:51.302Z,38.70
2023-02-15T17:40:26.798Z,44.03
2023-02-15T17:42:50.972Z,56.30
2023-02-15T17:45:16.761Z,43.07
2023-02-15T17:47:41.352Z,47.40
2023-02-15T17:50:07.100Z,53.83
2023-02-15T17:52:32.731Z,58.57
2023-02-15T17:55:13.709Z,52.83
2023-02-15T17:57:38.731Z,53.77
2023-02-15T18:00:19.585Z,60.63
2023-02-15T18:03:02.831Z,60.90
2023-02-15T18:05:44.140Z,60.43
2023-02-15T18:08:30.196Z,57.60
2023-02-15T18:11:11.095Z,60.40
2023-02-15T18:13:34.795Z,67.60
2023-02-15T18:15:58.571Z,59.03
2023-02-15T18:18:24.317Z,62.43
2023-02-15T18:20:48.138Z,61.40
2023-02-15T18:23:15.662Z,62.37
2023-02-15T18:25:39.590Z,58.77
2023-02-15T18:28:03.350Z,68.40
2023-02-15T18:30:27.388Z,71.93
2023-02-15T18:32:54.641Z,64.30
2023-02-15T18:35:23.091Z,58.87
2023-02-15T18:37:47.526Z,60.80
2023-02-15T18:40:17.931Z,63.43
2023-02-15T18:42:46.960Z,53.90
2023-02-15T18:45:18.451Z,56.70
2023-02-15T18:47:42.204Z,61.13
2023-02-15T18:50:07.132Z,52.47
2023-02-15T18:52:37.751Z,56.97
2023-02-15T18:55:04.186Z,50.83
2023-02-15T18:57:29.462Z,51.50
2023-02-15T18:59:53.227Z,55.30
2023-02-15T19:02:18.862Z,57.50
2023-02-15T19:04:42.999Z,52.60
2023-02-15T19:07:07.084Z,54.83
2023-02-15T19:09:32.692Z,53.07
2023-02-15T19:11:57.636Z,55.33
2023-02-15T19:14:31.195Z,58.20
2023-02-15T19:16:55.634Z,60.57
2023-02-15T19:19:19.382Z,68.13
2023-02-15T19:21:43.387Z,70.13
2023-02-15T19:24:14.756Z,62.03
2023-02-15T19:26:45.877Z,69.37
2023-02-15T19:29:14.268Z,68.27
2023-02-15T19:31:38.122Z,67.47
2023-02-15T19:34:01.958Z,70.43
2023-02-15T19:36:25.641Z,77.30
2023-02-15T19:38:54.563Z,83.93
2023-02-15T19:41:25.336Z,77.00
2023-02-15T19:43:55.680Z,72.20
2023-02-15T19:46:20.336Z,76.30
2023-02-15T19:48:44.092Z,87.73
2023-02-15T19:51:07.869Z,81.60
2023-02-15T19:53:31.692Z,92.27
2023-02-15T19:55:55.972Z,89.53
2023-02-15T19:58:20.670Z,81.67
2023-02-15T20:00:46.518Z,104.87
2023-02-15T20:03:10.533Z,102.07
2023-02-15T20:05:38.493Z,82.03
2023-02-15T20:08:04.320Z,81.93
2023-02-15T20:10:31.368Z,84.93
2023-02-15T20:12:55.212Z,90.33
2023-02-15T20:15:22.933Z,100.57
2023-02-15T20:17:48.337Z,100.27
2023-02-15T20:20:14.372Z,88.70
2023-02-15T20:22:38.367Z,96.33
2023-02-15T20:25:02.481Z,83.90
2023-02-15T20:27:26.693Z,82.23
2023-02-15T20:29:50.738Z,86.03
2023-02-15T20:32:14.757Z,83.77
2023-02-15T20:34:40.571Z,81.53
2023-02-15T20:37:04.759Z,80.67
2023-02-15T20:39:29.156Z,87.67
2023-02-15T20:41:52.877Z,80.77
2023-02-15T20:44:23.978Z,74.80
2023-02-15T20:46:48.462Z,79.10
2023-02-15T20:49:12.852Z,87.30
2023-02-15T20:51:38.585Z,98.30
2023-02-15T20:54:02.453Z,98.90
2023-02-15T20:56:26.854Z,94.03
2023-02-15T20:58:53.870Z,103.00
2023-02-15T21:01:19.944Z,121.53
2023-02-15T21:03:43.807Z,107.10
2023-02-15T21:06:08.812Z,104.83
2023-02-15T21:08:34.636Z,99.33
2023-02-15T21:10:59.743Z,121.50
2023-02-15T21:13:27.836Z,100.07
2023-02-15T21:15:53.197Z,100.23
2023-02-15T21:18:21.371Z,110.10
2023-02-15T21:20:50.895Z,122.70
2023-02-15T21:23:18.258Z,101.87
2023-02-15T21:25:44.795Z,99.93
2023-02-15T21:28:11.767Z,110.43
2023-02-15T21:30:35.993Z,110.43
2023-02-15T21:32:59.736Z,112.37
2023-02-15T21:35:24.102Z,111.07
2023-02-15T21:37:51.142Z,108.83
2023-02-15T21:40:23.423Z,103.97
2023-02-15T21:43:05.949Z,111.17
2023-02-15T21:45:47.567Z,109.23
2023-02-15T21:48:11.248Z,100.50
2023-02-15T21:50:54.421Z,110.90
2023-02-15T21:53:24.014Z,113.30
2023-02-15T21:55:47.785Z,110.07
2023-02-15T21:58:21.150Z,102.87
2023-02-15T22:00:45.447Z,108.90
2023-02-15T22:03:09.157Z,107.60
2023-02-15T22:05:35.248Z,114.60
2023-02-15T22:07:59.094Z,111.37
2023-02-15T22:10:23.004Z,108.30
2023-02-15T22:12:47.271Z,115.73
2023-02-15T22:15:22.149Z,107.90
2023-02-15T22:17:46.146Z,104.37
2023-02-15T22:20:16.951Z,112.13
2023-02-15T22:22:40.703Z,107.87
2023-02-15T22:25:04.832Z,108.93
2023-02-15T22:27:31.692Z,105.67
2023-02-15T22:29:56.536Z,101.10
2023-02-15T22:32:24.558Z,109.03
2023-02-15T22:34:48.938Z,98.40
2023-02-15T22:37:12.679Z,99.23
2023-02-15T22:39:36.379Z,110.20
2023-02-15T22:42:00.163Z,117.70
2023-02-15T22:44:27.244Z,126.30
2023-02-15T22:46:51.167Z,100.60
2023-02-15T22:49:16.849Z,118.50
2023-02-15T22:51:40.766Z,106.43
2023-02-15T22:54:04.505Z,117.73
2023-02-15T22:56:37.358Z,105.93
2023-02-15T22:59:05.597Z,99.97
2023-02-15T23:01:33.274Z,110.27
2023-02-15T23:03:57.045Z,111.77
2023-02-15T23:06:22.290Z,113.13
2023-02-15T23:08:46.044Z,99.43
2023-02-15T23:11:13.327Z,108.07
2023-02-15T23:13:37.370Z,101.87
2023-02-15T23:16:04.586Z,111.83
2023-02-15T23:18:32.171Z,107.53
2023-02-15T23:20:59.245Z,106.27
2023-02-15T23:23:33.279Z,109.97
2023-02-15T23:25:57.435Z,108.93
2023-02-15T23:28:27.356Z,101.83
2023-02-15T23:30:51.444Z,107.80
2023-02-15T23:33:15.431Z,102.97
2023-02-15T23:35:39.664Z,97.10
2023-02-15T23:38:03.325Z,110.33
2023-02-15T23:40:46.209Z,108.70
2023-02-15T23:43:20.936Z,114.57
2023-02-15T23:45:44.733Z,112.30
2023-02-15T23:48:31.453Z,128.60
2023-02-15T23:50:55.142Z,121.47
2023-02-15T23:53:18.874Z,129.27
2023-02-15T23:55:46.070Z,121.33
2023-02-15T23:58:18.475Z,124.90
